KLOU/LOU METAR and TAF weather

Enter ICAO airport designator
Station Type Date Time Source
KLOU METAR 2020/12/06 00:53 UTC NOAA

KLOU 060053Z 05003KT 10SM CLR 03/M02 A3009 RMK AO2 SLP195 T00281022


Station Type Date Time Source
KLOU Decoded METAR 2020/12/06 00:53 UTC NOAA

BOWMAN FIELD, KY, United States (KLOU) 38-14N 085-40W 164M
Dec 05, 2020 - 07:53 PM EST / 2020.12.06 0053 UTC
Wind: from the NE (050 degrees) at 3 MPH (3 KT):0
Visibility: 10 mile(s):0
Sky conditions: clear
Temperature: 37.0 F (2.8 C)
Dew Point: 28.0 F (-2.2 C)
Relative Humidity: 69%
Pressure (altimeter): 30.09 in. Hg (1018 hPa)
ob: KLOU 060053Z 05003KT 10SM CLR 03/M02 A3009 RMK AO2 SLP195 T00281022
cycle: 1

Station Type Date Time Source
KLOU TAF UTC NOAA

Error!

Example: see airport list